Terminal Aerodrome Forecast
Issued by NWS

Home | Current Version | Previous Version | Text Only | Print | Product List | Glossary On
Versions: 1 2 3 4 5 6 7 8 9 10 11 12 13 14 15 16 17 18 19 20 21 22 23 24 25 26 27 28 29 30
000
FTAK31 PAFA 232327
TAFAMC
TAF
PAMC 232327Z 2400/2424 27007KT P6SM -RA FEW005 BKN020 OVC040
     FM240400 22005KT 5SM -RA BR OVC015
     FM240900 21005KT 4SM -RA BR OVC007
     FM242100 25005KT 6SM -RA BR OVC020=

USA.gov is the U.S. government's official web portal to all federal, state and local government web resources and services.